Lolita, Texas
Current Conditions -  °F | °C
As of 3:55 PM on Monday 20 Oct 2014 (Local Time) from KPKV Reporting Station
Clear Clear  
Wind Chill: 85°   Ceiling: Unl
Heat Index: 86°   Visibility: 10mi
Dew Point: 64°   Wind: 14mph
Humidity: 49%   Direction: 50°NE
Pressure: 29.96"   Gusts: NA
Location:  28.84°N, 96.54°W
Report Text: KPKV 202055Z AUTO 05012KT 10SM CLR 29/18 A2996 RMK AO2 T02920176
Loading
Personal Weather Stations






























Interactive Weather Map
Tropical Storm Tracking
New forecast layout! Learn more

10-Day Weather Forecast

Advertisements
Track Severe Weather on mobile